sensor_id;sensor_type;location;lat;lon;timestamp;P1;durP1;ratioP1;P2;durP2;ratioP2
20844;SDS011;10583;49.084;8.646;2023-04-06T00:02:26;7.67;;;7.67;;
20844;SDS011;10583;49.084;8.646;2023-04-06T00:04:54;7.57;;;7.47;;
20844;SDS011;10583;49.084;8.646;2023-04-06T00:07:21;8.20;;;8.20;;
20844;SDS011;10583;49.084;8.646;2023-04-06T00:09:48;9.27;;;9.27;;
20844;SDS011;10583;49.084;8.646;2023-04-06T00:12:14;8.70;;;8.70;;
20844;SDS011;10583;49.084;8.646;2023-04-06T00:14:41;8.47;;;8.47;;
20844;SDS011;10583;49.084;8.646;2023-04-06T00:17:08;8.33;;;8.33;;
20844;SDS011;10583;49.084;8.646;2023-04-06T00:19:34;8.27;;;8.27;;
20844;SDS011;10583;49.084;8.646;2023-04-06T00:22:03;8.50;;;8.50;;
20844;SDS011;10583;49.084;8.646;2023-04-06T00:24:30;7.73;;;7.73;;
20844;SDS011;10583;49.084;8.646;2023-04-06T00:26:56;8.10;;;8.10;;
20844;SDS011;10583;49.084;8.646;2023-04-06T00:29:23;8.13;;;8.13;;
20844;SDS011;10583;49.084;8.646;2023-04-06T00:31:49;8.43;;;8.43;;
20844;SDS011;10583;49.084;8.646;2023-04-06T00:34:16;8.60;;;8.60;;
20844;SDS011;10583;49.084;8.646;2023-04-06T00:36:43;8.87;;;8.87;;
20844;SDS011;10583;49.084;8.646;2023-04-06T00:39:11;7.63;;;7.63;;
20844;SDS011;10583;49.084;8.646;2023-04-06T00:41:38;8.17;;;8.17;;
20844;SDS011;10583;49.084;8.646;2023-04-06T00:44:07;7.83;;;7.83;;
20844;SDS011;10583;49.084;8.646;2023-04-06T00:46:33;7.90;;;7.90;;
20844;SDS011;10583;49.084;8.646;2023-04-06T00:49:01;8.07;;;8.07;;
20844;SDS011;10583;49.084;8.646;2023-04-06T00:51:28;8.37;;;8.37;;
20844;SDS011;10583;49.084;8.646;2023-04-06T00:53:54;7.67;;;7.67;;
20844;SDS011;10583;49.084;8.646;2023-04-06T00:56:22;8.17;;;8.17;;
20844;SDS011;10583;49.084;8.646;2023-04-06T00:58:51;8.17;;;8.17;;
20844;SDS011;10583;49.084;8.646;2023-04-06T01:01:18;8.07;;;8.07;;
20844;SDS011;10583;49.084;8.646;2023-04-06T01:03:45;7.40;;;7.40;;
20844;SDS011;10583;49.084;8.646;2023-04-06T01:06:14;7.13;;;7.13;;
20844;SDS011;10583;49.084;8.646;2023-04-06T01:08:41;7.97;;;7.97;;
20844;SDS011;10583;49.084;8.646;2023-04-06T01:11:07;7.23;;;7.23;;
20844;SDS011;10583;49.084;8.646;2023-04-06T01:13:36;8.97;;;8.97;;
20844;SDS011;10583;49.084;8.646;2023-04-06T01:16:03;7.53;;;7.53;;
20844;SDS011;10583;49.084;8.646;2023-04-06T01:18:30;8.03;;;8.03;;
20844;SDS011;10583;49.084;8.646;2023-04-06T01:20:57;8.00;;;8.00;;
20844;SDS011;10583;49.084;8.646;2023-04-06T01:23:25;8.33;;;8.33;;
20844;SDS011;10583;49.084;8.646;2023-04-06T01:25:52;7.30;;;7.30;;
20844;SDS011;10583;49.084;8.646;2023-04-06T01:28:19;8.47;;;8.47;;
20844;SDS011;10583;49.084;8.646;2023-04-06T01:30:46;7.90;;;7.90;;
20844;SDS011;10583;49.084;8.646;2023-04-06T01:33:12;8.73;;;8.73;;
20844;SDS011;10583;49.084;8.646;2023-04-06T01:35:39;7.63;;;7.63;;
20844;SDS011;10583;49.084;8.646;2023-04-06T01:38:06;7.53;;;7.53;;
20844;SDS011;10583;49.084;8.646;2023-04-06T01:40:34;7.50;;;7.50;;
20844;SDS011;10583;49.084;8.646;2023-04-06T01:43:00;8.20;;;8.20;;
20844;SDS011;10583;49.084;8.646;2023-04-06T01:45:27;7.77;;;7.77;;
20844;SDS011;10583;49.084;8.646;2023-04-06T01:47:54;7.07;;;7.07;;
20844;SDS011;10583;49.084;8.646;2023-04-06T01:50:21;7.50;;;7.50;;
20844;SDS011;10583;49.084;8.646;2023-04-06T01:52:48;7.90;;;7.90;;
20844;SDS011;10583;49.084;8.646;2023-04-06T01:55:15;7.70;;;7.70;;
20844;SDS011;10583;49.084;8.646;2023-04-06T01:57:43;8.20;;;8.20;;
20844;SDS011;10583;49.084;8.646;2023-04-06T02:00:10;9.20;;;9.20;;
20844;SDS011;10583;49.084;8.646;2023-04-06T02:02:37;7.90;;;7.90;;
20844;SDS011;10583;49.084;8.646;2023-04-06T02:05:04;8.43;;;8.43;;
20844;SDS011;10583;49.084;8.646;2023-04-06T02:07:32;8.33;;;8.33;;
20844;SDS011;10583;49.084;8.646;2023-04-06T02:09:58;8.23;;;8.23;;
20844;SDS011;10583;49.084;8.646;2023-04-06T02:12:25;8.60;;;8.60;;
20844;SDS011;10583;49.084;8.646;2023-04-06T02:14:53;7.57;;;7.57;;
20844;SDS011;10583;49.084;8.646;2023-04-06T02:17:20;8.60;;;8.60;;
20844;SDS011;10583;49.084;8.646;2023-04-06T02:19:47;7.00;;;7.00;;
20844;SDS011;10583;49.084;8.646;2023-04-06T02:22:13;8.40;;;8.40;;
20844;SDS011;10583;49.084;8.646;2023-04-06T02:24:40;7.40;;;7.40;;
20844;SDS011;10583;49.084;8.646;2023-04-06T02:27:07;7.90;;;7.90;;
20844;SDS011;10583;49.084;8.646;2023-04-06T02:29:34;7.93;;;7.93;;
20844;SDS011;10583;49.084;8.646;2023-04-06T02:32:02;7.87;;;7.87;;
20844;SDS011;10583;49.084;8.646;2023-04-06T02:34:29;7.83;;;7.83;;
20844;SDS011;10583;49.084;8.646;2023-04-06T02:36:56;7.57;;;7.57;;
20844;SDS011;10583;49.084;8.646;2023-04-06T02:39:23;8.10;;;8.10;;
20844;SDS011;10583;49.084;8.646;2023-04-06T02:41:49;7.33;;;7.33;;
20844;SDS011;10583;49.084;8.646;2023-04-06T02:44:16;7.30;;;7.30;;
20844;SDS011;10583;49.084;8.646;2023-04-06T02:46:43;8.10;;;8.10;;
20844;SDS011;10583;49.084;8.646;2023-04-06T02:49:11;8.30;;;8.30;;
20844;SDS011;10583;49.084;8.646;2023-04-06T02:51:37;7.60;;;7.60;;
20844;SDS011;10583;49.084;8.646;2023-04-06T02:54:04;7.67;;;7.67;;
20844;SDS011;10583;49.084;8.646;2023-04-06T02:56:31;7.97;;;7.97;;
20844;SDS011;10583;49.084;8.646;2023-04-06T02:58:57;8.07;;;8.07;;
20844;SDS011;10583;49.084;8.646;2023-04-06T03:01:25;8.40;;;8.40;;
20844;SDS011;10583;49.084;8.646;2023-04-06T03:03:52;8.37;;;8.37;;
20844;SDS011;10583;49.084;8.646;2023-04-06T03:06:20;7.90;;;7.90;;
20844;SDS011;10583;49.084;8.646;2023-04-06T03:08:46;7.93;;;7.93;;
20844;SDS011;10583;49.084;8.646;2023-04-06T03:11:13;7.83;;;7.83;;
20844;SDS011;10583;49.084;8.646;2023-04-06T03:13:40;8.03;;;8.03;;
20844;SDS011;10583;49.084;8.646;2023-04-06T03:16:06;8.10;;;8.10;;
20844;SDS011;10583;49.084;8.646;2023-04-06T03:18:33;8.33;;;8.33;;
20844;SDS011;10583;49.084;8.646;2023-04-06T03:21:00;7.80;;;7.80;;
20844;SDS011;10583;49.084;8.646;2023-04-06T03:23:28;8.77;;;8.67;;
20844;SDS011;10583;49.084;8.646;2023-04-06T03:25:54;8.20;;;8.20;;
20844;SDS011;10583;49.084;8.646;2023-04-06T03:28:21;8.20;;;8.20;;
20844;SDS011;10583;49.084;8.646;2023-04-06T03:30:48;8.33;;;8.33;;
20844;SDS011;10583;49.084;8.646;2023-04-06T03:33:15;8.00;;;8.00;;
20844;SDS011;10583;49.084;8.646;2023-04-06T03:35:41;8.23;;;8.23;;
20844;SDS011;10583;49.084;8.646;2023-04-06T03:38:08;7.37;;;7.37;;
20844;SDS011;10583;49.084;8.646;2023-04-06T03:40:36;8.30;;;8.30;;
20844;SDS011;10583;49.084;8.646;2023-04-06T03:43:03;8.20;;;8.20;;
20844;SDS011;10583;49.084;8.646;2023-04-06T03:45:30;7.67;;;7.67;;
20844;SDS011;10583;49.084;8.646;2023-04-06T03:47:57;8.00;;;8.00;;
20844;SDS011;10583;49.084;8.646;2023-04-06T03:50:24;7.77;;;7.77;;
20844;SDS011;10583;49.084;8.646;2023-04-06T03:52:51;8.60;;;8.60;;
20844;SDS011;10583;49.084;8.646;2023-04-06T03:55:17;8.07;;;8.07;;
20844;SDS011;10583;49.084;8.646;2023-04-06T03:57:45;8.20;;;8.20;;
20844;SDS011;10583;49.084;8.646;2023-04-06T04:00:12;7.77;;;7.77;;
20844;SDS011;10583;49.084;8.646;2023-04-06T04:02:39;8.47;;;8.47;;
20844;SDS011;10583;49.084;8.646;2023-04-06T04:05:06;8.47;;;8.47;;
20844;SDS011;10583;49.084;8.646;2023-04-06T04:07:33;8.97;;;8.97;;
20844;SDS011;10583;49.084;8.646;2023-04-06T04:10:00;8.17;;;8.07;;
20844;SDS011;10583;49.084;8.646;2023-04-06T04:12:26;8.93;;;8.93;;
20844;SDS011;10583;49.084;8.646;2023-04-06T04:14:54;8.90;;;8.90;;
20844;SDS011;10583;49.084;8.646;2023-04-06T04:17:21;8.30;;;8.30;;
20844;SDS011;10583;49.084;8.646;2023-04-06T04:19:48;9.03;;;9.03;;
20844;SDS011;10583;49.084;8.646;2023-04-06T04:22:15;8.80;;;8.80;;
20844;SDS011;10583;49.084;8.646;2023-04-06T04:24:41;9.33;;;9.33;;
20844;SDS011;10583;49.084;8.646;2023-04-06T04:27:08;9.23;;;9.23;;
20844;SDS011;10583;49.084;8.646;2023-04-06T04:29:35;9.17;;;9.17;;
20844;SDS011;10583;49.084;8.646;2023-04-06T04:32:03;8.70;;;8.70;;
20844;SDS011;10583;49.084;8.646;2023-04-06T04:34:30;9.10;;;9.10;;
20844;SDS011;10583;49.084;8.646;2023-04-06T04:36:57;8.73;;;8.73;;
20844;SDS011;10583;49.084;8.646;2023-04-06T04:39:24;7.93;;;7.93;;
20844;SDS011;10583;49.084;8.646;2023-04-06T04:41:51;8.60;;;8.60;;
20844;SDS011;10583;49.084;8.646;2023-04-06T04:44:18;8.03;;;8.03;;
20844;SDS011;10583;49.084;8.646;2023-04-06T04:46:45;7.90;;;7.90;;
20844;SDS011;10583;49.084;8.646;2023-04-06T04:49:13;8.57;;;8.57;;
20844;SDS011;10583;49.084;8.646;2023-04-06T04:51:40;8.33;;;8.33;;
20844;SDS011;10583;49.084;8.646;2023-04-06T04:54:06;7.93;;;7.93;;
20844;SDS011;10583;49.084;8.646;2023-04-06T04:56:33;8.33;;;8.33;;
20844;SDS011;10583;49.084;8.646;2023-04-06T04:59:00;8.23;;;8.23;;
20844;SDS011;10583;49.084;8.646;2023-04-06T05:01:26;8.60;;;8.60;;
20844;SDS011;10583;49.084;8.646;2023-04-06T05:03:53;8.73;;;8.73;;
20844;SDS011;10583;49.084;8.646;2023-04-06T05:06:21;8.17;;;8.17;;
20844;SDS011;10583;49.084;8.646;2023-04-06T05:08:48;8.90;;;8.90;;
20844;SDS011;10583;49.084;8.646;2023-04-06T05:11:15;9.30;;;9.30;;
20844;SDS011;10583;49.084;8.646;2023-04-06T05:13:41;8.47;;;8.47;;
20844;SDS011;10583;49.084;8.646;2023-04-06T05:16:08;8.10;;;8.10;;
20844;SDS011;10583;49.084;8.646;2023-04-06T05:18:35;8.00;;;8.00;;
20844;SDS011;10583;49.084;8.646;2023-04-06T05:21:02;9.27;;;9.27;;
20844;SDS011;10583;49.084;8.646;2023-04-06T05:23:30;9.67;;;9.67;;
20844;SDS011;10583;49.084;8.646;2023-04-06T05:25:57;8.87;;;8.87;;
20844;SDS011;10583;49.084;8.646;2023-04-06T05:28:23;8.87;;;8.87;;
20844;SDS011;10583;49.084;8.646;2023-04-06T05:30:50;8.60;;;8.60;;
20844;SDS011;10583;49.084;8.646;2023-04-06T05:33:17;8.77;;;8.77;;
20844;SDS011;10583;49.084;8.646;2023-04-06T05:35:44;8.80;;;8.80;;
20844;SDS011;10583;49.084;8.646;2023-04-06T05:38:11;8.47;;;8.47;;
20844;SDS011;10583;49.084;8.646;2023-04-06T05:40:39;9.13;;;9.13;;
20844;SDS011;10583;49.084;8.646;2023-04-06T05:43:06;8.43;;;8.33;;
20844;SDS011;10583;49.084;8.646;2023-04-06T05:45:33;9.43;;;9.43;;
20844;SDS011;10583;49.084;8.646;2023-04-06T05:48:00;9.83;;;9.83;;
20844;SDS011;10583;49.084;8.646;2023-04-06T05:50:27;9.47;;;9.47;;
20844;SDS011;10583;49.084;8.646;2023-04-06T05:52:54;9.10;;;9.10;;
20844;SDS011;10583;49.084;8.646;2023-04-06T05:55:21;8.90;;;8.90;;
20844;SDS011;10583;49.084;8.646;2023-04-06T05:57:49;9.00;;;9.00;;
20844;SDS011;10583;49.084;8.646;2023-04-06T06:00:15;8.97;;;8.97;;
20844;SDS011;10583;49.084;8.646;2023-04-06T06:02:42;8.87;;;8.87;;
20844;SDS011;10583;49.084;8.646;2023-04-06T06:05:09;8.77;;;8.77;;
20844;SDS011;10583;49.084;8.646;2023-04-06T06:07:36;9.07;;;9.07;;
20844;SDS011;10583;49.084;8.646;2023-04-06T06:10:03;9.00;;;9.00;;
20844;SDS011;10583;49.084;8.646;2023-04-06T06:12:30;9.30;;;9.30;;
20844;SDS011;10583;49.084;8.646;2023-04-06T06:14:58;8.97;;;8.97;;
20844;SDS011;10583;49.084;8.646;2023-04-06T06:17:25;8.83;;;8.83;;
20844;SDS011;10583;49.084;8.646;2023-04-06T06:19:52;10.07;;;10.07;;
20844;SDS011;10583;49.084;8.646;2023-04-06T06:22:18;9.90;;;9.90;;
20844;SDS011;10583;49.084;8.646;2023-04-06T06:24:45;10.13;;;10.07;;
20844;SDS011;10583;49.084;8.646;2023-04-06T06:27:12;9.90;;;9.80;;
20844;SDS011;10583;49.084;8.646;2023-04-06T06:29:39;11.07;;;10.97;;
20844;SDS011;10583;49.084;8.646;2023-04-06T06:32:07;10.30;;;10.30;;
20844;SDS011;10583;49.084;8.646;2023-04-06T06:34:34;11.30;;;11.20;;
20844;SDS011;10583;49.084;8.646;2023-04-06T06:37:01;10.50;;;10.50;;
20844;SDS011;10583;49.084;8.646;2023-04-06T06:39:28;11.17;;;11.17;;
20844;SDS011;10583;49.084;8.646;2023-04-06T06:41:54;9.97;;;9.97;;
20844;SDS011;10583;49.084;8.646;2023-04-06T06:44:21;10.50;;;10.40;;
20844;SDS011;10583;49.084;8.646;2023-04-06T06:46:48;10.77;;;10.77;;
20844;SDS011;10583;49.084;8.646;2023-04-06T06:49:16;12.60;;;12.50;;
20844;SDS011;10583;49.084;8.646;2023-04-06T06:51:43;12.00;;;11.90;;
20844;SDS011;10583;49.084;8.646;2023-04-06T06:54:10;12.67;;;12.57;;
20844;SDS011;10583;49.084;8.646;2023-04-06T06:56:37;11.03;;;11.03;;
20844;SDS011;10583;49.084;8.646;2023-04-06T06:59:04;12.20;;;12.10;;
20844;SDS011;10583;49.084;8.646;2023-04-06T07:01:32;12.30;;;12.20;;
20844;SDS011;10583;49.084;8.646;2023-04-06T07:03:59;11.77;;;11.67;;
20844;SDS011;10583;49.084;8.646;2023-04-06T07:06:27;12.27;;;12.17;;
20844;SDS011;10583;49.084;8.646;2023-04-06T07:08:54;11.70;;;11.60;;
20844;SDS011;10583;49.084;8.646;2023-04-06T07:11:21;12.03;;;11.93;;
20844;SDS011;10583;49.084;8.646;2023-04-06T07:13:47;12.47;;;12.37;;
20844;SDS011;10583;49.084;8.646;2023-04-06T07:16:14;11.73;;;11.70;;
20844;SDS011;10583;49.084;8.646;2023-04-06T07:18:41;12.27;;;12.17;;
20844;SDS011;10583;49.084;8.646;2023-04-06T07:21:08;11.23;;;11.23;;
20844;SDS011;10583;49.084;8.646;2023-04-06T07:23:36;11.03;;;11.03;;
20844;SDS011;10583;49.084;8.646;2023-04-06T07:26:02;10.37;;;10.37;;
20844;SDS011;10583;49.084;8.646;2023-04-06T07:28:29;10.50;;;10.43;;
20844;SDS011;10583;49.084;8.646;2023-04-06T07:30:56;10.13;;;10.13;;
20844;SDS011;10583;49.084;8.646;2023-04-06T07:33:23;9.37;;;9.37;;
20844;SDS011;10583;49.084;8.646;2023-04-06T07:35:49;9.00;;;9.00;;
20844;SDS011;10583;49.084;8.646;2023-04-06T07:38:17;8.87;;;8.87;;
20844;SDS011;10583;49.084;8.646;2023-04-06T07:40:45;7.80;;;7.80;;
20844;SDS011;10583;49.084;8.646;2023-04-06T07:43:12;7.40;;;7.40;;
20844;SDS011;10583;49.084;8.646;2023-04-06T07:45:39;7.60;;;7.60;;
20844;SDS011;10583;49.084;8.646;2023-04-06T07:48:05;7.70;;;7.70;;
20844;SDS011;10583;49.084;8.646;2023-04-06T07:50:32;7.30;;;7.30;;
20844;SDS011;10583;49.084;8.646;2023-04-06T07:52:59;6.60;;;6.60;;
20844;SDS011;10583;49.084;8.646;2023-04-06T07:55:26;6.83;;;6.83;;
20844;SDS011;10583;49.084;8.646;2023-04-06T07:57:54;7.23;;;7.23;;
20844;SDS011;10583;49.084;8.646;2023-04-06T08:00:21;6.93;;;6.93;;
20844;SDS011;10583;49.084;8.646;2023-04-06T08:02:47;6.07;;;6.07;;
20844;SDS011;10583;49.084;8.646;2023-04-06T08:05:14;6.73;;;6.73;;
20844;SDS011;10583;49.084;8.646;2023-04-06T08:07:41;7.23;;;7.23;;
20844;SDS011;10583;49.084;8.646;2023-04-06T08:10:08;6.60;;;6.60;;
20844;SDS011;10583;49.084;8.646;2023-04-06T08:12:35;6.60;;;6.60;;
20844;SDS011;10583;49.084;8.646;2023-04-06T08:15:04;6.23;;;6.23;;
20844;SDS011;10583;49.084;8.646;2023-04-06T08:17:31;6.83;;;6.83;;
20844;SDS011;10583;49.084;8.646;2023-04-06T08:19:58;6.47;;;6.47;;
20844;SDS011;10583;49.084;8.646;2023-04-06T08:22:25;6.40;;;6.40;;
20844;SDS011;10583;49.084;8.646;2023-04-06T08:24:52;6.40;;;6.40;;
20844;SDS011;10583;49.084;8.646;2023-04-06T08:27:19;6.83;;;6.83;;
20844;SDS011;10583;49.084;8.646;2023-04-06T08:29:47;6.70;;;6.70;;
20844;SDS011;10583;49.084;8.646;2023-04-06T08:32:16;6.00;;;6.00;;
20844;SDS011;10583;49.084;8.646;2023-04-06T08:34:43;7.20;;;7.20;;
20844;SDS011;10583;49.084;8.646;2023-04-06T08:37:10;7.37;;;7.37;;
20844;SDS011;10583;49.084;8.646;2023-04-06T08:39:37;7.00;;;7.00;;
20844;SDS011;10583;49.084;8.646;2023-04-06T08:42:03;7.40;;;7.40;;
20844;SDS011;10583;49.084;8.646;2023-04-06T08:44:30;6.53;;;6.53;;
20844;SDS011;10583;49.084;8.646;2023-04-06T08:46:58;7.17;;;7.17;;
20844;SDS011;10583;49.084;8.646;2023-04-06T08:49:27;7.30;;;7.30;;
20844;SDS011;10583;49.084;8.646;2023-04-06T08:51:54;7.00;;;7.00;;
20844;SDS011;10583;49.084;8.646;2023-04-06T08:54:22;7.43;;;7.43;;
20844;SDS011;10583;49.084;8.646;2023-04-06T08:56:49;7.50;;;7.50;;
20844;SDS011;10583;49.084;8.646;2023-04-06T08:59:16;7.50;;;7.50;;
20844;SDS011;10583;49.084;8.646;2023-04-06T09:01:44;7.20;;;7.20;;
20844;SDS011;10583;49.084;8.646;2023-04-06T09:04:11;7.00;;;7.00;;
20844;SDS011;10583;49.084;8.646;2023-04-06T09:06:41;7.37;;;7.37;;
20844;SDS011;10583;49.084;8.646;2023-04-06T09:09:08;7.43;;;7.43;;
20844;SDS011;10583;49.084;8.646;2023-04-06T09:11:46;7.23;;;7.23;;
20844;SDS011;10583;49.084;8.646;2023-04-06T09:14:14;7.23;;;7.23;;
20844;SDS011;10583;49.084;8.646;2023-04-06T09:16:42;7.10;;;7.10;;
20844;SDS011;10583;49.084;8.646;2023-04-06T09:19:10;6.90;;;6.90;;
20844;SDS011;10583;49.084;8.646;2023-04-06T09:21:38;6.83;;;6.83;;
20844;SDS011;10583;49.084;8.646;2023-04-06T09:24:08;7.20;;;7.20;;
20844;SDS011;10583;49.084;8.646;2023-04-06T09:26:44;7.27;;;7.27;;
20844;SDS011;10583;49.084;8.646;2023-04-06T09:29:21;7.27;;;7.27;;
20844;SDS011;10583;49.084;8.646;2023-04-06T09:31:48;7.27;;;7.27;;
20844;SDS011;10583;49.084;8.646;2023-04-06T09:34:20;6.83;;;6.83;;
20844;SDS011;10583;49.084;8.646;2023-04-06T09:36:47;7.93;;;7.93;;
20844;SDS011;10583;49.084;8.646;2023-04-06T09:39:19;7.50;;;7.50;;
20844;SDS011;10583;49.084;8.646;2023-04-06T09:41:51;7.70;;;7.70;;
20844;SDS011;10583;49.084;8.646;2023-04-06T09:44:20;7.63;;;7.63;;
20844;SDS011;10583;49.084;8.646;2023-04-06T09:46:48;7.23;;;7.23;;
20844;SDS011;10583;49.084;8.646;2023-04-06T09:49:16;7.90;;;7.90;;
20844;SDS011;10583;49.084;8.646;2023-04-06T09:51:45;6.87;;;6.87;;
20844;SDS011;10583;49.084;8.646;2023-04-06T09:54:18;8.50;;;8.50;;
20844;SDS011;10583;49.084;8.646;2023-04-06T09:56:48;7.80;;;7.80;;
20844;SDS011;10583;49.084;8.646;2023-04-06T09:59:18;7.20;;;7.20;;
20844;SDS011;10583;49.084;8.646;2023-04-06T10:01:54;6.87;;;6.87;;
20844;SDS011;10583;49.084;8.646;2023-04-06T10:04:28;6.90;;;6.90;;
20844;SDS011;10583;49.084;8.646;2023-04-06T10:06:59;7.37;;;7.37;;
20844;SDS011;10583;49.084;8.646;2023-04-06T10:09:30;7.03;;;7.03;;
20844;SDS011;10583;49.084;8.646;2023-04-06T10:12:01;7.03;;;7.03;;
20844;SDS011;10583;49.084;8.646;2023-04-06T10:14:29;6.97;;;6.97;;
20844;SDS011;10583;49.084;8.646;2023-04-06T10:16:57;6.80;;;6.80;;
20844;SDS011;10583;49.084;8.646;2023-04-06T10:19:25;6.33;;;6.33;;
20844;SDS011;10583;49.084;8.646;2023-04-06T10:21:58;7.23;;;7.23;;
20844;SDS011;10583;49.084;8.646;2023-04-06T10:24:29;6.90;;;6.90;;
20844;SDS011;10583;49.084;8.646;2023-04-06T10:26:57;7.80;;;7.80;;
20844;SDS011;10583;49.084;8.646;2023-04-06T10:29:25;6.73;;;6.73;;
20844;SDS011;10583;49.084;8.646;2023-04-06T10:31:52;7.43;;;7.43;;
20844;SDS011;10583;49.084;8.646;2023-04-06T10:34:20;7.50;;;7.50;;
20844;SDS011;10583;49.084;8.646;2023-04-06T10:36:47;7.23;;;7.23;;
20844;SDS011;10583;49.084;8.646;2023-04-06T10:39:13;7.43;;;7.43;;
20844;SDS011;10583;49.084;8.646;2023-04-06T10:41:42;7.87;;;7.87;;
20844;SDS011;10583;49.084;8.646;2023-04-06T10:44:16;8.10;;;8.10;;
20844;SDS011;10583;49.084;8.646;2023-04-06T10:46:51;7.17;;;7.17;;
20844;SDS011;10583;49.084;8.646;2023-04-06T10:49:19;7.50;;;7.50;;
20844;SDS011;10583;49.084;8.646;2023-04-06T10:51:50;7.20;;;7.20;;
20844;SDS011;10583;49.084;8.646;2023-04-06T10:54:19;7.70;;;7.70;;
20844;SDS011;10583;49.084;8.646;2023-04-06T10:56:49;8.30;;;8.30;;
20844;SDS011;10583;49.084;8.646;2023-04-06T10:59:18;8.13;;;8.13;;
20844;SDS011;10583;49.084;8.646;2023-04-06T11:01:45;8.07;;;8.07;;
20844;SDS011;10583;49.084;8.646;2023-04-06T11:04:15;7.67;;;7.67;;
20844;SDS011;10583;49.084;8.646;2023-04-06T11:06:45;6.93;;;6.93;;
20844;SDS011;10583;49.084;8.646;2023-04-06T11:09:22;6.80;;;6.80;;
20844;SDS011;10583;49.084;8.646;2023-04-06T11:11:52;7.27;;;7.27;;
20844;SDS011;10583;49.084;8.646;2023-04-06T11:14:20;8.50;;;8.50;;
20844;SDS011;10583;49.084;8.646;2023-04-06T11:16:47;7.50;;;7.50;;
20844;SDS011;10583;49.084;8.646;2023-04-06T11:19:14;7.47;;;7.47;;
20844;SDS011;10583;49.084;8.646;2023-04-06T11:21:42;7.83;;;7.83;;
20844;SDS011;10583;49.084;8.646;2023-04-06T11:24:13;7.20;;;7.20;;
20844;SDS011;10583;49.084;8.646;2023-04-06T11:26:41;7.30;;;7.30;;
20844;SDS011;10583;49.084;8.646;2023-04-06T11:29:12;7.10;;;7.10;;
20844;SDS011;10583;49.084;8.646;2023-04-06T11:31:40;6.93;;;6.93;;
20844;SDS011;10583;49.084;8.646;2023-04-06T11:34:11;7.17;;;7.17;;
20844;SDS011;10583;49.084;8.646;2023-04-06T11:36:42;6.90;;;6.90;;
20844;SDS011;10583;49.084;8.646;2023-04-06T11:39:10;6.53;;;6.53;;
20844;SDS011;10583;49.084;8.646;2023-04-06T11:41:37;6.57;;;6.57;;
20844;SDS011;10583;49.084;8.646;2023-04-06T11:44:05;6.33;;;6.33;;
20844;SDS011;10583;49.084;8.646;2023-04-06T11:46:36;6.30;;;6.30;;
20844;SDS011;10583;49.084;8.646;2023-04-06T11:49:03;6.73;;;6.73;;
20844;SDS011;10583;49.084;8.646;2023-04-06T11:51:29;6.93;;;6.93;;
20844;SDS011;10583;49.084;8.646;2023-04-06T11:53:56;6.97;;;6.97;;
20844;SDS011;10583;49.084;8.646;2023-04-06T11:56:23;6.53;;;6.53;;
20844;SDS011;10583;49.084;8.646;2023-04-06T11:58:51;6.23;;;6.23;;
20844;SDS011;10583;49.084;8.646;2023-04-06T12:01:19;6.73;;;6.73;;
20844;SDS011;10583;49.084;8.646;2023-04-06T12:03:47;6.57;;;6.57;;
20844;SDS011;10583;49.084;8.646;2023-04-06T12:06:14;6.37;;;6.37;;
20844;SDS011;10583;49.084;8.646;2023-04-06T12:08:40;6.50;;;6.50;;
20844;SDS011;10583;49.084;8.646;2023-04-06T12:11:08;6.67;;;6.67;;
20844;SDS011;10583;49.084;8.646;2023-04-06T12:13:35;6.50;;;6.50;;
20844;SDS011;10583;49.084;8.646;2023-04-06T12:16:01;6.70;;;6.70;;
20844;SDS011;10583;49.084;8.646;2023-04-06T12:18:29;6.87;;;6.87;;
20844;SDS011;10583;49.084;8.646;2023-04-06T12:20:57;7.67;;;7.67;;
20844;SDS011;10583;49.084;8.646;2023-04-06T12:23:24;6.50;;;6.50;;
20844;SDS011;10583;49.084;8.646;2023-04-06T12:25:51;7.33;;;7.33;;
20844;SDS011;10583;49.084;8.646;2023-04-06T12:28:19;6.83;;;6.83;;
20844;SDS011;10583;49.084;8.646;2023-04-06T12:30:48;6.97;;;6.97;;
20844;SDS011;10583;49.084;8.646;2023-04-06T12:33:15;6.73;;;6.73;;
20844;SDS011;10583;49.084;8.646;2023-04-06T12:35:42;7.30;;;7.30;;
20844;SDS011;10583;49.084;8.646;2023-04-06T12:38:10;6.60;;;6.60;;
20844;SDS011;10583;49.084;8.646;2023-04-06T12:40:37;6.63;;;6.63;;
20844;SDS011;10583;49.084;8.646;2023-04-06T12:43:04;7.57;;;7.57;;
20844;SDS011;10583;49.084;8.646;2023-04-06T12:45:32;7.07;;;7.07;;
20844;SDS011;10583;49.084;8.646;2023-04-06T12:47:58;6.53;;;6.53;;
20844;SDS011;10583;49.084;8.646;2023-04-06T12:50:26;7.07;;;7.07;;
20844;SDS011;10583;49.084;8.646;2023-04-06T12:52:52;7.07;;;7.07;;
20844;SDS011;10583;49.084;8.646;2023-04-06T12:55:21;7.37;;;7.37;;
20844;SDS011;10583;49.084;8.646;2023-04-06T12:57:47;6.90;;;6.90;;
20844;SDS011;10583;49.084;8.646;2023-04-06T13:00:15;7.10;;;7.10;;
20844;SDS011;10583;49.084;8.646;2023-04-06T13:02:42;16.33;;;16.23;;
20844;SDS011;10583;49.084;8.646;2023-04-06T13:05:12;7.03;;;7.03;;
20844;SDS011;10583;49.084;8.646;2023-04-06T13:07:43;6.67;;;6.67;;
20844;SDS011;10583;49.084;8.646;2023-04-06T13:10:10;12.10;;;12.00;;
20844;SDS011;10583;49.084;8.646;2023-04-06T13:12:38;9.27;;;9.27;;
20844;SDS011;10583;49.084;8.646;2023-04-06T13:15:06;6.57;;;6.57;;
20844;SDS011;10583;49.084;8.646;2023-04-06T13:17:33;7.10;;;7.10;;
20844;SDS011;10583;49.084;8.646;2023-04-06T13:20:00;7.10;;;7.10;;
20844;SDS011;10583;49.084;8.646;2023-04-06T13:22:28;7.10;;;7.10;;
20844;SDS011;10583;49.084;8.646;2023-04-06T13:24:55;6.80;;;6.80;;
20844;SDS011;10583;49.084;8.646;2023-04-06T13:27:22;6.50;;;6.50;;
20844;SDS011;10583;49.084;8.646;2023-04-06T13:29:50;6.60;;;6.60;;
20844;SDS011;10583;49.084;8.646;2023-04-06T13:32:16;6.73;;;6.73;;
20844;SDS011;10583;49.084;8.646;2023-04-06T13:34:43;6.37;;;6.37;;
20844;SDS011;10583;49.084;8.646;2023-04-06T13:37:11;5.93;;;5.93;;
20844;SDS011;10583;49.084;8.646;2023-04-06T13:39:38;6.90;;;6.90;;
20844;SDS011;10583;49.084;8.646;2023-04-06T13:42:04;6.83;;;6.83;;
20844;SDS011;10583;49.084;8.646;2023-04-06T13:44:32;5.87;;;5.87;;
20844;SDS011;10583;49.084;8.646;2023-04-06T13:47:00;6.90;;;6.90;;
20844;SDS011;10583;49.084;8.646;2023-04-06T13:49:27;5.43;;;5.43;;
20844;SDS011;10583;49.084;8.646;2023-04-06T13:51:54;6.00;;;6.00;;
20844;SDS011;10583;49.084;8.646;2023-04-06T13:54:20;5.90;;;5.90;;
20844;SDS011;10583;49.084;8.646;2023-04-06T13:56:47;6.53;;;6.53;;
20844;SDS011;10583;49.084;8.646;2023-04-06T13:59:14;6.07;;;6.07;;
20844;SDS011;10583;49.084;8.646;2023-04-06T14:01:41;6.30;;;6.30;;
20844;SDS011;10583;49.084;8.646;2023-04-06T14:04:09;6.50;;;6.50;;
20844;SDS011;10583;49.084;8.646;2023-04-06T14:06:36;6.30;;;6.30;;
20844;SDS011;10583;49.084;8.646;2023-04-06T14:09:03;6.93;;;6.93;;
20844;SDS011;10583;49.084;8.646;2023-04-06T14:11:31;6.43;;;6.43;;
20844;SDS011;10583;49.084;8.646;2023-04-06T14:13:59;6.53;;;6.53;;
20844;SDS011;10583;49.084;8.646;2023-04-06T14:16:25;6.43;;;6.43;;
20844;SDS011;10583;49.084;8.646;2023-04-06T14:18:52;6.37;;;6.37;;
20844;SDS011;10583;49.084;8.646;2023-04-06T14:21:21;6.70;;;6.70;;
20844;SDS011;10583;49.084;8.646;2023-04-06T14:23:48;6.00;;;6.00;;
20844;SDS011;10583;49.084;8.646;2023-04-06T14:26:14;6.77;;;6.77;;
20844;SDS011;10583;49.084;8.646;2023-04-06T14:28:41;6.17;;;6.17;;
20844;SDS011;10583;49.084;8.646;2023-04-06T14:31:12;6.67;;;6.67;;
20844;SDS011;10583;49.084;8.646;2023-04-06T14:33:41;6.57;;;6.57;;
20844;SDS011;10583;49.084;8.646;2023-04-06T14:36:08;6.40;;;6.40;;
20844;SDS011;10583;49.084;8.646;2023-04-06T14:38:37;6.37;;;6.37;;
20844;SDS011;10583;49.084;8.646;2023-04-06T14:41:05;6.47;;;6.47;;
20844;SDS011;10583;49.084;8.646;2023-04-06T14:43:32;5.87;;;5.87;;
20844;SDS011;10583;49.084;8.646;2023-04-06T14:45:59;6.03;;;6.03;;
20844;SDS011;10583;49.084;8.646;2023-04-06T14:48:26;6.40;;;6.40;;